createdAt,value
2022-11-16T00:01:11.930Z,97156.72
2022-11-16T00:03:17.341Z,97149.19
2022-11-16T00:05:27.963Z,97144.81
2022-11-16T00:07:33.263Z,97128.56
2022-11-16T00:09:38.132Z,97129.50
2022-11-16T00:11:43.304Z,97133.09
2022-11-16T00:13:47.818Z,97120.63
2022-11-16T00:16:01.591Z,97123.44
2022-11-16T00:18:06.596Z,97118.44
2022-11-16T00:20:13.031Z,97112.41
2022-11-16T00:22:17.785Z,97110.81
2022-11-16T00:24:24.689Z,97103.69
2022-11-16T00:26:29.807Z,97107.94
2022-11-16T00:28:35.120Z,97101.50
2022-11-16T00:30:40.221Z,97113.72
2022-11-16T00:32:47.597Z,97110.63
2022-11-16T00:34:52.899Z,97119.03
2022-11-16T00:36:57.729Z,97111.75
2022-11-16T00:39:02.474Z,97110.56
2022-11-16T00:41:07.435Z,97113.00
2022-11-16T00:43:15.361Z,97113.75
2022-11-16T00:45:20.337Z,97115.53
2022-11-16T00:47:25.169Z,97105.28
2022-11-16T00:49:32.598Z,97107.81
2022-11-16T00:51:38.629Z,97112.13
2022-11-16T00:53:44.432Z,97107.88
2022-11-16T00:55:50.672Z,97103.47
2022-11-16T00:57:57.717Z,97100.75
2022-11-16T01:00:03.226Z,97107.97
2022-11-16T01:02:08.310Z,97106.88
2022-11-16T01:04:13.051Z,97106.53
2022-11-16T01:06:20.547Z,97107.06
2022-11-16T01:08:25.484Z,97104.53
2022-11-16T01:10:31.936Z,97099.44
2022-11-16T01:12:34.119Z,97105.31
2022-11-16T01:14:39.217Z,97109.38
2022-11-16T01:16:44.003Z,97101.44
2022-11-16T01:18:51.531Z,97109.38
2022-11-16T01:20:56.279Z,97106.06
2022-11-16T01:23:03.615Z,97118.94
2022-11-16T01:25:09.952Z,97111.97
2022-11-16T01:27:15.280Z,97108.72
2022-11-16T01:29:22.714Z,97113.75
2022-11-16T01:31:32.371Z,97113.41
2022-11-16T01:33:40.354Z,97110.63
2022-11-16T01:35:50.420Z,97103.59
2022-11-16T01:37:55.166Z,97101.78
2022-11-16T01:40:04.034Z,97090.56
2022-11-16T01:42:10.739Z,97089.78
2022-11-16T01:44:45.518Z,97089.97
2022-11-16T01:46:54.210Z,97093.63
2022-11-16T01:49:04.623Z,97091.97
2022-11-16T01:51:09.481Z,97091.13
2022-11-16T01:53:16.033Z,97080.94
2022-11-16T01:55:36.533Z,97087.94
2022-11-16T01:57:53.181Z,97089.88
2022-11-16T02:00:00.957Z,97080.25
2022-11-16T02:02:18.971Z,97086.47
2022-11-16T02:04:24.218Z,97092.00
2022-11-16T02:06:48.191Z,97086.09
2022-11-16T02:09:26.524Z,97092.06
2022-11-16T02:12:11.399Z,97084.50
2022-11-16T02:14:28.136Z,97094.34
2022-11-16T02:16:41.958Z,97083.19
2022-11-16T02:18:54.862Z,97080.25
2022-11-16T02:21:34.466Z,97089.88
2022-11-16T02:24:11.920Z,97088.44
2022-11-16T02:26:28.465Z,97090.44
2022-11-16T02:28:46.607Z,97090.63
2022-11-16T02:30:58.648Z,97090.00
2022-11-16T02:33:07.392Z,97091.94
2022-11-16T02:35:16.719Z,97084.00
2022-11-16T02:37:25.677Z,97085.91
2022-11-16T02:39:34.615Z,97092.25
2022-11-16T02:41:47.995Z,97087.84
2022-11-16T02:44:00.429Z,97083.88
2022-11-16T02:46:14.970Z,97085.81
2022-11-16T02:48:27.701Z,97088.09
2022-11-16T02:50:36.269Z,97088.34
2022-11-16T02:52:41.917Z,97075.69
2022-11-16T02:54:48.359Z,97090.66
2022-11-16T02:56:58.464Z,97095.81
2022-11-16T02:59:05.994Z,97089.09
2022-11-16T03:01:18.620Z,97095.38
2022-11-16T03:03:33.042Z,97099.56
2022-11-16T03:05:41.862Z,97097.75
2022-11-16T03:07:50.938Z,97103.50
2022-11-16T03:09:58.171Z,97107.22
2022-11-16T03:12:03.155Z,97112.13
2022-11-16T03:14:17.510Z,97114.16
2022-11-16T03:16:29.545Z,97118.38
2022-11-16T03:18:35.909Z,97113.00
2022-11-16T03:20:44.193Z,97113.63
2022-11-16T03:22:52.277Z,97115.00
2022-11-16T03:24:57.340Z,97116.09
2022-11-16T03:27:04.644Z,97104.22
2022-11-16T03:29:14.953Z,97111.13
2022-11-16T03:31:29.703Z,97113.50
2022-11-16T03:33:38.013Z,97125.22
2022-11-16T03:35:49.205Z,97120.72
2022-11-16T03:37:57.966Z,97129.84
2022-11-16T03:40:05.559Z,97129.63
2022-11-16T03:42:16.745Z,97124.09
2022-11-16T03:44:23.491Z,97136.75
2022-11-16T03:46:31.530Z,97123.44
2022-11-16T03:48:38.406Z,97122.44
2022-11-16T03:50:49.042Z,97126.47
2022-11-16T03:52:54.468Z,97126.97
2022-11-16T03:54:59.434Z,97126.81
2022-11-16T03:57:04.399Z,97129.34
2022-11-16T03:59:09.945Z,97127.41
2022-11-16T04:01:14.907Z,97126.31
2022-11-16T04:03:22.298Z,97125.56
2022-11-16T04:05:54.974Z,97126.41
2022-11-16T04:08:12.538Z,97132.00
2022-11-16T04:10:30.025Z,97126.81
2022-11-16T04:12:47.691Z,97130.34
2022-11-16T04:15:04.952Z,97135.44
2022-11-16T04:17:27.988Z,97134.53
2022-11-16T04:19:47.733Z,97137.19
2022-11-16T04:22:08.754Z,97136.78
2022-11-16T04:24:18.766Z,97140.28
2022-11-16T04:26:44.654Z,97136.19
2022-11-16T04:28:47.085Z,97132.16
2022-11-16T04:31:08.512Z,97126.22
2022-11-16T04:33:28.074Z,97123.13
2022-11-16T04:35:48.043Z,97125.66
2022-11-16T04:37:58.613Z,97122.06
2022-11-16T04:40:13.409Z,97120.28
2022-11-16T04:42:15.664Z,97127.38
2022-11-16T04:44:28.805Z,97134.66
2022-11-16T04:46:47.520Z,97130.81
2022-11-16T04:48:53.281Z,97123.19
2022-11-16T04:51:00.712Z,97112.19
2022-11-16T04:53:05.751Z,97117.22
2022-11-16T04:55:18.039Z,97120.16
2022-11-16T04:57:24.481Z,97116.50
2022-11-16T04:59:29.587Z,97124.28
2022-11-16T05:01:46.994Z,97127.09
2022-11-16T05:03:51.896Z,97123.50
2022-11-16T05:05:56.757Z,97115.81
2022-11-16T05:08:04.350Z,97111.03
2022-11-16T05:10:11.571Z,97114.38
2022-11-16T05:12:21.428Z,97115.81
2022-11-16T05:14:29.384Z,97111.47
2022-11-16T05:16:34.460Z,97113.22
2022-11-16T05:18:39.358Z,97113.47
2022-11-16T05:21:09.074Z,97118.66
2022-11-16T05:23:30.833Z,97114.38
2022-11-16T05:25:40.433Z,97111.19
2022-11-16T05:27:48.584Z,97103.09
2022-11-16T05:29:54.422Z,97106.66
2022-11-16T05:32:02.186Z,97105.34
2022-11-16T05:34:06.966Z,97106.22
2022-11-16T05:36:12.654Z,97104.47
2022-11-16T05:38:20.313Z,97110.53
2022-11-16T05:40:29.169Z,97103.72
2022-11-16T05:42:36.580Z,97107.66
2022-11-16T05:44:41.866Z,97110.91
2022-11-16T05:46:48.629Z,97114.09
2022-11-16T05:48:55.361Z,97109.97
2022-11-16T05:51:01.161Z,97109.44
2022-11-16T05:53:10.592Z,97117.97
2022-11-16T05:55:19.391Z,97108.50
2022-11-16T05:57:24.708Z,97112.69
2022-11-16T05:59:30.135Z,97096.81
2022-11-16T06:01:37.271Z,97090.88
2022-11-16T06:03:42.179Z,97098.06
2022-11-16T06:05:47.019Z,97090.13
2022-11-16T06:07:54.418Z,97090.00
2022-11-16T06:09:59.488Z,97097.97
2022-11-16T06:12:09.328Z,97096.41
2022-11-16T06:14:14.280Z,97101.72
2022-11-16T06:16:19.244Z,97105.16
2022-11-16T06:18:24.727Z,97100.50
2022-11-16T06:20:29.536Z,97098.72
2022-11-16T06:22:34.988Z,97093.78
2022-11-16T06:24:39.889Z,97091.50
2022-11-16T06:26:46.083Z,97089.00
2022-11-16T06:28:55.505Z,97095.94
2022-11-16T06:31:01.150Z,97103.13
2022-11-16T06:33:12.813Z,97093.41
2022-11-16T06:35:18.164Z,97092.09
2022-11-16T06:37:22.983Z,97087.69
2022-11-16T06:39:27.994Z,97095.38
2022-11-16T06:41:36.595Z,97096.63
2022-11-16T06:43:46.208Z,97093.94
2022-11-16T06:45:57.790Z,97089.44
2022-11-16T06:48:02.812Z,97096.13
2022-11-16T06:50:08.439Z,97102.00
2022-11-16T06:52:16.014Z,97097.56
2022-11-16T06:54:20.821Z,97094.03
2022-11-16T06:56:25.700Z,97093.97
2022-11-16T06:58:34.485Z,97098.16
2022-11-16T07:00:40.064Z,97102.75
2022-11-16T07:02:49.388Z,97098.84
2022-11-16T07:05:02.133Z,97102.94
2022-11-16T07:07:08.603Z,97102.19
2022-11-16T07:09:17.933Z,97101.94
2022-11-16T07:11:23.016Z,97104.53
2022-11-16T07:13:27.922Z,97111.41
2022-11-16T07:15:32.863Z,97109.47
2022-11-16T07:17:37.780Z,97110.91
2022-11-16T07:19:45.885Z,97124.47
2022-11-16T07:21:50.692Z,97123.72
2022-11-16T07:23:57.068Z,97133.16
2022-11-16T07:26:02.974Z,97148.06
2022-11-16T07:28:18.148Z,97128.25
2022-11-16T07:30:23.245Z,97134.75
2022-11-16T07:32:54.150Z,97131.00
2022-11-16T07:35:21.841Z,97141.31
2022-11-16T07:37:26.659Z,97143.81
2022-11-16T07:39:31.770Z,97149.84
2022-11-16T07:41:36.654Z,97147.84
2022-11-16T07:44:01.346Z,97152.44
2022-11-16T07:48:38.096Z,97162.66
2022-11-16T07:51:07.171Z,97156.09
2022-11-16T07:53:19.372Z,97153.81
2022-11-16T07:55:25.732Z,97156.53
2022-11-16T07:57:31.573Z,97161.09
2022-11-16T07:59:39.659Z,97160.59
2022-11-16T08:01:44.719Z,97165.94
2022-11-16T08:03:49.714Z,97165.94
2022-11-16T08:06:01.429Z,97167.28
2022-11-16T08:08:09.866Z,97165.31
2022-11-16T08:10:15.837Z,97166.22
2022-11-16T08:12:20.759Z,97162.94
2022-11-16T08:14:25.966Z,97162.38
2022-11-16T08:16:33.808Z,97171.81
2022-11-16T08:18:47.171Z,97163.78
2022-11-16T08:20:53.980Z,97163.78
2022-11-16T08:23:02.684Z,97167.91
2022-11-16T08:25:14.183Z,97173.84
2022-11-16T08:27:21.038Z,97172.16
2022-11-16T08:29:30.174Z,97167.22
2022-11-16T08:31:36.351Z,97173.31
2022-11-16T08:33:49.094Z,97169.72
2022-11-16T08:35:54.370Z,97180.94
2022-11-16T08:38:00.039Z,97176.69
2022-11-16T08:40:06.429Z,97173.91
2022-11-16T08:42:18.311Z,97175.53
2022-11-16T08:44:26.432Z,97172.81
2022-11-16T08:46:33.764Z,97168.41
2022-11-16T08:48:52.401Z,97165.31
2022-11-16T08:51:16.467Z,97172.00
2022-11-16T08:53:27.540Z,97167.56
2022-11-16T08:55:32.357Z,97172.53
2022-11-16T08:57:39.957Z,97173.97
2022-11-16T08:59:48.030Z,97172.28
2022-11-16T09:01:52.887Z,97170.13
2022-11-16T09:03:58.295Z,97180.50
2022-11-16T09:06:03.102Z,97184.28
2022-11-16T09:08:08.145Z,97184.19
2022-11-16T09:10:16.049Z,97181.53
2022-11-16T09:12:20.843Z,97178.59
2022-11-16T09:14:29.119Z,97182.69
2022-11-16T09:16:34.313Z,97177.34
2022-11-16T09:18:40.692Z,97177.00
2022-11-16T09:20:47.041Z,97176.09
2022-11-16T09:22:51.857Z,97174.31
2022-11-16T09:24:56.587Z,97178.34
2022-11-16T09:27:01.993Z,97174.81
2022-11-16T09:29:06.817Z,97181.19
2022-11-16T09:31:23.015Z,97186.31
2022-11-16T09:33:30.565Z,97179.25
2022-11-16T09:35:37.117Z,97179.25
2022-11-16T09:37:41.882Z,97182.63
2022-11-16T09:39:46.687Z,97182.38
2022-11-16T09:42:02.892Z,97185.53
2022-11-16T09:44:20.333Z,97185.63
2022-11-16T09:46:32.078Z,97187.22
2022-11-16T09:48:40.130Z,97191.66
2022-11-16T09:50:49.526Z,97191.06
2022-11-16T09:52:58.171Z,97198.78
2022-11-16T09:55:13.374Z,97195.94
2022-11-16T09:57:25.807Z,97194.91
2022-11-16T09:59:36.780Z,97198.88
2022-11-16T10:01:48.292Z,97193.41
2022-11-16T10:03:58.730Z,97191.63
2022-11-16T10:06:06.104Z,97186.97
2022-11-16T10:08:17.990Z,97184.19
2022-11-16T10:10:33.328Z,97181.25
2022-11-16T10:12:46.509Z,97181.81
2022-11-16T10:15:17.805Z,97182.31
2022-11-16T10:17:45.479Z,97177.59
2022-11-16T10:19:57.106Z,97177.81
2022-11-16T10:22:09.479Z,97175.69
2022-11-16T10:24:28.100Z,97179.34
2022-11-16T10:26:43.534Z,97175.13
2022-11-16T10:28:59.547Z,97170.97
2022-11-16T10:31:13.914Z,97162.03
2022-11-16T10:33:25.007Z,97162.03
2022-11-16T10:35:35.366Z,97167.22
2022-11-16T10:37:43.925Z,97167.22
2022-11-16T10:39:50.668Z,97166.03
2022-11-16T10:41:55.552Z,97166.78
2022-11-16T10:44:02.028Z,97168.19
2022-11-16T10:46:16.693Z,97165.31
2022-11-16T10:48:37.370Z,97151.63
2022-11-16T10:50:46.818Z,97156.94
2022-11-16T10:52:53.453Z,97159.25
2022-11-16T10:54:59.886Z,97154.22
2022-11-16T10:57:08.998Z,97152.00
2022-11-16T10:59:15.006Z,97146.50
2022-11-16T11:01:31.146Z,97145.00
2022-11-16T11:03:38.553Z,97142.31
2022-11-16T11:05:56.019Z,97136.28
2022-11-16T11:08:05.373Z,97141.56
2022-11-16T11:10:32.035Z,97134.78
2022-11-16T11:12:40.222Z,97142.88
2022-11-16T11:14:55.287Z,97136.53
2022-11-16T11:17:14.661Z,97138.78
2022-11-16T11:19:28.376Z,97139.34
2022-11-16T11:21:33.157Z,97136.53
2022-11-16T11:23:45.292Z,97135.41
2022-11-16T11:25:56.125Z,97131.59
2022-11-16T11:28:08.794Z,97134.66
2022-11-16T11:30:23.704Z,97127.56
2022-11-16T11:32:34.966Z,97124.31
2022-11-16T11:34:48.238Z,97126.66
2022-11-16T11:36:57.012Z,97125.50
2022-11-16T11:39:04.755Z,97126.06
2022-11-16T11:41:22.292Z,97114.84
2022-11-16T11:43:27.781Z,97111.84
2022-11-16T11:45:43.864Z,97111.44
2022-11-16T11:47:59.403Z,97115.44
2022-11-16T11:50:14.075Z,97104.81
2022-11-16T11:52:24.396Z,97108.50
2022-11-16T11:54:34.202Z,97103.72
2022-11-16T11:56:39.107Z,97105.84
2022-11-16T11:58:45.326Z,97096.03
2022-11-16T12:01:02.571Z,97094.38
2022-11-16T12:03:46.010Z,97094.06
2022-11-16T12:06:10.418Z,97095.41
2022-11-16T12:08:30.176Z,97095.63
2022-11-16T12:10:44.422Z,97094.59
2022-11-16T12:13:05.483Z,97094.47
2022-11-16T12:15:34.572Z,97101.53
2022-11-16T12:17:52.423Z,97092.28
2022-11-16T12:20:15.135Z,97096.25
2022-11-16T12:22:39.643Z,97095.09
2022-11-16T12:24:58.308Z,97097.81
2022-11-16T12:27:14.802Z,97084.47
2022-11-16T12:29:28.510Z,97092.44
2022-11-16T12:31:56.373Z,97090.00
2022-11-16T12:34:10.041Z,97092.72
2022-11-16T12:36:27.555Z,97087.00
2022-11-16T12:38:53.309Z,97087.22
2022-11-16T12:41:27.654Z,97086.34
2022-11-16T12:43:40.762Z,97086.13
2022-11-16T12:45:59.246Z,97087.22
2022-11-16T12:48:21.049Z,97096.28
2022-11-16T12:50:48.024Z,97090.72
2022-11-16T12:53:08.312Z,97094.81
2022-11-16T12:55:32.324Z,97092.00
2022-11-16T12:57:46.046Z,97095.97
2022-11-16T13:00:05.667Z,97084.16
2022-11-16T13:02:22.519Z,97087.19
2022-11-16T13:04:32.341Z,97087.59
2022-11-16T13:06:45.599Z,97082.56
2022-11-16T13:09:07.845Z,97076.19
2022-11-16T13:11:21.715Z,97074.91
2022-11-16T13:13:38.240Z,97071.03
2022-11-16T13:15:47.883Z,97074.78
2022-11-16T13:18:04.518Z,97076.56
2022-11-16T13:20:33.238Z,97058.94
2022-11-16T13:22:40.654Z,97049.75
2022-11-16T13:24:52.702Z,97051.00
2022-11-16T13:27:16.120Z,97044.41
2022-11-16T13:29:31.656Z,97041.56
2022-11-16T13:31:43.898Z,97040.06
2022-11-16T13:33:51.510Z,97037.59
2022-11-16T13:35:56.360Z,97022.78
2022-11-16T13:38:01.195Z,97021.03
2022-11-16T13:40:24.476Z,97014.63
2022-11-16T13:42:33.154Z,97016.81
2022-11-16T13:44:38.408Z,97013.81
2022-11-16T13:46:55.666Z,97013.22
2022-11-16T13:49:01.192Z,97003.47
2022-11-16T13:51:08.946Z,97001.78
2022-11-16T13:54:17.589Z,96993.22
2022-11-16T13:55:47.049Z,96988.28
2022-11-16T13:57:59.031Z,97006.25
2022-11-16T14:00:14.742Z,97005.34
2022-11-16T14:02:35.110Z,97013.22
2022-11-16T14:04:56.676Z,97001.66
2022-11-16T14:07:02.677Z,96992.16
2022-11-16T14:09:43.335Z,96994.75
2022-11-16T14:11:48.644Z,96985.06
2022-11-16T14:13:55.751Z,96981.41
2022-11-16T14:16:33.012Z,96975.03
2022-11-16T14:18:38.238Z,96976.41
2022-11-16T14:20:47.459Z,96971.94
2022-11-16T14:23:06.556Z,96973.50
2022-11-16T14:25:22.931Z,96959.56
2022-11-16T14:27:36.995Z,96973.56
2022-11-16T14:30:06.834Z,96972.03
2022-11-16T14:32:23.811Z,96971.13
2022-11-16T14:34:34.412Z,96974.69
2022-11-16T14:36:42.861Z,96976.34
2022-11-16T14:38:48.123Z,96978.22
2022-11-16T14:43:52.828Z,96982.28
2022-11-16T14:46:07.125Z,96976.34
2022-11-16T14:48:18.679Z,96987.75
2022-11-16T14:50:41.020Z,96984.19
2022-11-16T14:52:55.241Z,96981.66
2022-11-16T14:55:06.313Z,96977.72
2022-11-16T14:57:19.879Z,96977.72
2022-11-16T14:59:24.848Z,96978.84
2022-11-16T15:01:35.673Z,96969.22
2022-11-16T15:03:48.489Z,96973.75
2022-11-16T15:05:53.709Z,96975.47
2022-11-16T15:08:00.461Z,96968.19
2022-11-16T15:10:05.274Z,96972.25
2022-11-16T15:12:32.828Z,96980.16
2022-11-16T15:14:43.259Z,96974.31
2022-11-16T15:16:55.452Z,96970.16
2022-11-16T15:19:01.854Z,96974.53
2022-11-16T15:21:06.970Z,96988.50
2022-11-16T15:23:17.514Z,96981.81
2022-11-16T15:25:34.367Z,96989.09
2022-11-16T15:27:44.029Z,96991.19
2022-11-16T15:29:50.153Z,96984.47
2022-11-16T15:31:57.874Z,96989.06
2022-11-16T15:34:04.180Z,96997.28
2022-11-16T15:36:27.804Z,97003.72
2022-11-16T15:38:36.476Z,97011.09
2022-11-16T15:40:43.575Z,97010.00
2022-11-16T15:42:48.546Z,97012.91
2022-11-16T15:44:54.153Z,97011.31
2022-11-16T15:47:02.301Z,97009.75
2022-11-16T15:49:07.207Z,97011.81
2022-11-16T15:51:20.111Z,97011.06
2022-11-16T15:53:39.528Z,97010.34
2022-11-16T15:55:44.677Z,97015.81
2022-11-16T15:57:59.356Z,97013.53
2022-11-16T16:00:04.265Z,97021.59
2022-11-16T16:02:20.116Z,97014.94
2022-11-16T16:04:25.727Z,97012.59
2022-11-16T16:06:48.645Z,97015.19
2022-11-16T16:09:07.089Z,97013.72
2022-11-16T16:11:14.412Z,97015.78
2022-11-16T16:13:28.623Z,97012.16
2022-11-16T16:15:36.882Z,97010.56
2022-11-16T16:17:48.919Z,97013.16
2022-11-16T16:19:58.208Z,97012.41
2022-11-16T16:22:03.498Z,97016.16
2022-11-16T16:24:08.173Z,97021.72
2022-11-16T16:26:13.055Z,97019.41
2022-11-16T16:28:17.802Z,97016.00
2022-11-16T16:30:23.049Z,97014.28
2022-11-16T16:32:29.705Z,97014.34
2022-11-16T16:34:42.425Z,97019.56
2022-11-16T16:36:47.390Z,97016.19
2022-11-16T16:38:53.066Z,97017.03
2022-11-16T16:41:04.147Z,97018.81
2022-11-16T16:43:08.989Z,97015.56
2022-11-16T16:45:20.045Z,97017.31
2022-11-16T16:47:24.865Z,97011.47
2022-11-16T16:49:29.662Z,97013.13
2022-11-16T16:51:37.207Z,97008.69
2022-11-16T16:53:42.344Z,97007.75
2022-11-16T16:55:47.625Z,97004.22
2022-11-16T16:57:54.077Z,97006.81
2022-11-16T16:59:58.942Z,97007.56
2022-11-16T17:02:03.681Z,97008.22
2022-11-16T17:04:08.481Z,97010.81
2022-11-16T17:06:14.762Z,97009.97
2022-11-16T17:08:22.182Z,97014.34
2022-11-16T17:10:27.336Z,97007.56
2022-11-16T17:12:32.359Z,97014.72
2022-11-16T17:14:37.294Z,97012.19
2022-11-16T17:16:42.088Z,97015.94
2022-11-16T17:18:47.843Z,97017.22
2022-11-16T17:20:52.787Z,97019.28
2022-11-16T17:22:58.546Z,97014.25
2022-11-16T17:25:06.290Z,97004.75
2022-11-16T17:27:11.222Z,97006.72
2022-11-16T17:29:16.939Z,97004.31
2022-11-16T17:31:21.707Z,97011.34
2022-11-16T17:33:26.537Z,97003.66
2022-11-16T17:35:31.315Z,97003.66
2022-11-16T17:37:36.158Z,96995.94
2022-11-16T17:39:42.623Z,96987.94
2022-11-16T17:41:50.228Z,96983.50
2022-11-16T17:43:56.864Z,96979.97
2022-11-16T17:46:06.265Z,96981.66
2022-11-16T17:48:11.250Z,96978.22
2022-11-16T17:50:16.877Z,96978.38
2022-11-16T17:52:21.723Z,96983.94
2022-11-16T17:54:26.610Z,96986.53
2022-11-16T17:56:31.751Z,96978.91
2022-11-16T17:58:39.014Z,96980.22
2022-11-16T18:00:44.078Z,96984.19
2022-11-16T18:02:48.924Z,96980.09
2022-11-16T18:04:53.714Z,96982.84
2022-11-16T18:07:00.714Z,96985.56
2022-11-16T18:09:05.639Z,96979.59
2022-11-16T18:11:12.519Z,96979.53
2022-11-16T18:13:17.302Z,96978.41
2022-11-16T18:15:29.015Z,96969.34
2022-11-16T18:17:36.267Z,96970.75
2022-11-16T18:19:41.089Z,96970.22
2022-11-16T18:21:49.671Z,96961.94
2022-11-16T18:23:54.549Z,96960.47
2022-11-16T18:25:59.387Z,96958.34
2022-11-16T18:28:04.198Z,96959.66
2022-11-16T18:30:10.610Z,96951.50
2022-11-16T18:32:17.988Z,96955.38
2022-11-16T18:34:22.752Z,96950.81
2022-11-16T18:36:27.516Z,96952.31
2022-11-16T18:38:32.362Z,96945.25
2022-11-16T18:40:37.159Z,96946.75
2022-11-16T18:42:41.968Z,96947.38
2022-11-16T18:44:49.126Z,96943.94
2022-11-16T18:46:53.905Z,96931.97
2022-11-16T18:49:01.931Z,96934.13
2022-11-16T18:51:07.693Z,96935.31
2022-11-16T18:53:12.493Z,96929.28
2022-11-16T18:55:17.437Z,96929.28
2022-11-16T18:57:22.306Z,96923.25
2022-11-16T18:59:27.069Z,96923.97
2022-11-16T19:01:31.919Z,96925.69
2022-11-16T19:03:37.802Z,96925.56
2022-11-16T19:05:48.239Z,96919.66
2022-11-16T19:07:53.015Z,96927.78
2022-11-16T19:09:57.849Z,96929.03
2022-11-16T19:12:02.599Z,96931.63
2022-11-16T19:14:07.787Z,96935.78
2022-11-16T19:16:13.294Z,96933.28
2022-11-16T19:18:22.125Z,96929.75
2022-11-16T19:20:27.154Z,96929.56
2022-11-16T19:22:35.699Z,96924.28
2022-11-16T19:24:40.433Z,96919.16
2022-11-16T19:26:47.985Z,96925.38
2022-11-16T19:28:54.014Z,96929.75
2022-11-16T19:30:58.840Z,96924.34
2022-11-16T19:33:04.167Z,96922.50
2022-11-16T19:35:11.009Z,96921.69
2022-11-16T19:37:15.767Z,96914.63
2022-11-16T19:39:23.181Z,96907.19
2022-11-16T19:41:28.987Z,96907.28
2022-11-16T19:43:34.425Z,96911.34
2022-11-16T19:45:39.455Z,96912.47
2022-11-16T19:47:44.704Z,96920.47
2022-11-16T19:49:50.223Z,96925.91
2022-11-16T19:51:55.250Z,96926.03
2022-11-16T19:54:01.479Z,96926.66
2022-11-16T19:56:11.678Z,96926.31
2022-11-16T19:58:17.597Z,96918.50
2022-11-16T20:00:23.108Z,96910.63
2022-11-16T20:02:28.486Z,96906.28
2022-11-16T20:04:34.541Z,96907.03
2022-11-16T20:06:41.491Z,96908.75
2022-11-16T20:08:50.563Z,96910.63
2022-11-16T20:10:55.373Z,96904.13
2022-11-16T20:13:02.934Z,96903.28
2022-11-16T20:15:08.693Z,96901.63
2022-11-16T20:17:13.904Z,96910.44
2022-11-16T20:19:19.774Z,96911.53
2022-11-16T20:21:26.293Z,96910.69
2022-11-16T20:23:31.247Z,96912.28
2022-11-16T20:25:36.237Z,96914.88
2022-11-16T20:27:42.146Z,96908.66
2022-11-16T20:29:49.594Z,96908.59
2022-11-16T20:31:54.373Z,96918.97
2022-11-16T20:34:01.147Z,96916.28
2022-11-16T20:36:07.794Z,96915.25
2022-11-16T20:38:12.591Z,96923.88
2022-11-16T20:40:17.882Z,96915.63
2022-11-16T20:42:22.729Z,96916.81
2022-11-16T20:44:27.554Z,96926.47
2022-11-16T20:46:37.924Z,96932.50
2022-11-16T20:48:43.908Z,96926.28
2022-11-16T20:50:53.581Z,96933.06
2022-11-16T20:52:58.877Z,96926.84
2022-11-16T20:55:03.376Z,96918.22
2022-11-16T20:57:08.227Z,96918.13
2022-11-16T20:59:13.033Z,96912.75
2022-11-16T21:01:20.004Z,96914.50
2022-11-16T21:03:27.455Z,96901.53
2022-11-16T21:05:32.415Z,96915.34
2022-11-16T21:07:38.167Z,96915.53
2022-11-16T21:09:57.012Z,96893.16
2022-11-16T21:12:14.263Z,96892.50
2022-11-16T21:14:19.357Z,96905.25
2022-11-16T21:16:24.391Z,96900.63
2022-11-16T21:18:32.238Z,96899.56
2022-11-16T21:20:37.180Z,96899.56
2022-11-16T21:22:42.164Z,96904.13
2022-11-16T21:24:47.036Z,96902.66
2022-11-16T21:26:52.385Z,96908.59
2022-11-16T21:28:57.266Z,96913.59
2022-11-16T21:31:04.068Z,96904.75
2022-11-16T21:33:08.898Z,96908.94
2022-11-16T21:35:20.988Z,96908.88
2022-11-16T21:37:25.882Z,96919.06
2022-11-16T21:39:33.068Z,96918.88
2022-11-16T21:41:37.858Z,96915.34
2022-11-16T21:43:44.404Z,96909.31
2022-11-16T21:45:51.273Z,96907.28
2022-11-16T21:47:56.016Z,96901.63
2022-11-16T21:52:28.938Z,96878.22
2022-11-16T21:54:46.050Z,96874.69
2022-11-16T21:56:50.802Z,96877.53
2022-11-16T21:58:56.732Z,96871.94
2022-11-16T22:01:03.280Z,96877.22
2022-11-16T22:03:08.429Z,96870.44
2022-11-16T22:05:25.623Z,96869.41
2022-11-16T22:07:33.355Z,96862.38
2022-11-16T22:09:38.218Z,96871.00
2022-11-16T22:11:43.011Z,96870.28
2022-11-16T22:13:47.851Z,96869.72
2022-11-16T22:15:52.668Z,96862.09
2022-11-16T22:17:57.406Z,96856.59
2022-11-16T22:20:02.316Z,96854.16
2022-11-16T22:22:07.072Z,96855.94
2022-11-16T22:24:14.519Z,96852.50
2022-11-16T22:26:19.331Z,96856.03
2022-11-16T22:28:24.214Z,96856.09
2022-11-16T22:30:28.959Z,96857.13
2022-11-16T22:32:33.760Z,96849.50
2022-11-16T22:34:38.726Z,96857.47
2022-11-16T22:36:43.958Z,96847.38
2022-11-16T22:38:48.467Z,96846.63
2022-11-16T22:40:57.920Z,96848.56
2022-11-16T22:43:02.886Z,96848.22
2022-11-16T22:45:08.608Z,96846.72
2022-11-16T22:47:13.598Z,96843.13
2022-11-16T22:49:18.938Z,96836.25
2022-11-16T22:51:24.477Z,96838.34
2022-11-16T22:53:29.264Z,96824.59
2022-11-16T22:55:37.438Z,96826.16
2022-11-16T22:57:44.836Z,96820.09
2022-11-16T22:59:49.620Z,96814.06
2022-11-16T23:01:54.385Z,96815.00
2022-11-16T23:03:59.241Z,96816.81
2022-11-16T23:06:04.745Z,96818.69
2022-11-16T23:08:09.517Z,96817.09
2022-11-16T23:10:14.367Z,96818.69
2022-11-16T23:12:31.524Z,96813.19
2022-11-16T23:14:51.622Z,96808.16
2022-11-16T23:16:56.507Z,96812.56
2022-11-16T23:19:01.397Z,96819.41
2022-11-16T23:21:24.386Z,96815.94
2022-11-16T23:23:41.748Z,96811.44
2022-11-16T23:25:58.985Z,96810.25
2022-11-16T23:28:08.581Z,96805.81
2022-11-16T23:30:19.045Z,96816.75
2022-11-16T23:32:23.871Z,96823.03
2022-11-16T23:34:28.727Z,96814.03
2022-11-16T23:36:33.578Z,96807.63
2022-11-16T23:38:38.448Z,96810.50
2022-11-16T23:40:43.358Z,96811.91
2022-11-16T23:43:00.560Z,96809.09
2022-11-16T23:45:02.984Z,96811.69
2022-11-16T23:47:10.662Z,96806.66
2022-11-16T23:49:15.491Z,96804.59
2022-11-16T23:51:23.370Z,96807.84
2022-11-16T23:53:28.237Z,96809.59
2022-11-16T23:55:35.116Z,96805.72
2022-11-16T23:57:39.977Z,96800.66
2022-11-16T23:59:44.730Z,96800.03
